createdAt,value
2024-05-09T00:00:41.762Z,0.00
2024-05-09T00:01:40.875Z,0.00
2024-05-09T00:02:40.800Z,0.00
2024-05-09T00:03:40.872Z,0.00
2024-05-09T00:04:40.836Z,0.00
2024-05-09T00:05:41.076Z,0.00
2024-05-09T00:06:40.765Z,0.00
2024-05-09T00:07:40.760Z,0.00
2024-05-09T00:08:40.789Z,0.00
2024-05-09T00:09:40.783Z,0.00
2024-05-09T00:10:41.463Z,0.00
2024-05-09T00:11:40.946Z,0.00
2024-05-09T00:12:40.763Z,0.00
2024-05-09T00:13:40.711Z,0.00
2024-05-09T00:14:40.743Z,0.00
2024-05-09T00:15:40.736Z,0.00
2024-05-09T00:16:40.713Z,0.00
2024-05-09T00:17:41.025Z,0.00
2024-05-09T00:18:40.850Z,0.00
2024-05-09T00:19:40.658Z,0.00
2024-05-09T00:20:41.415Z,0.00
2024-05-09T00:21:41.146Z,0.00
2024-05-09T00:22:40.671Z,0.00
2024-05-09T00:23:40.736Z,0.00
2024-05-09T00:24:40.610Z,0.00
2024-05-09T00:25:40.607Z,0.00
2024-05-09T00:26:40.779Z,0.00
2024-05-09T00:27:40.663Z,0.00
2024-05-09T00:28:40.575Z,0.00
2024-05-09T00:29:40.579Z,0.00
2024-05-09T00:30:40.732Z,0.00
2024-05-09T00:31:40.587Z,0.00
2024-05-09T00:32:40.642Z,0.00
2024-05-09T00:33:40.805Z,0.00
2024-05-09T00:34:40.526Z,0.00
2024-05-09T00:35:40.524Z,0.00
2024-05-09T00:36:40.518Z,0.00
2024-05-09T00:37:40.561Z,0.00
2024-05-09T00:38:40.598Z,0.00
2024-05-09T00:39:40.522Z,0.00
2024-05-09T00:40:42.631Z,0.00
2024-05-09T00:41:40.647Z,0.00
2024-05-09T00:42:40.614Z,0.00
2024-05-09T00:43:40.479Z,0.00
2024-05-09T00:44:40.436Z,0.00
2024-05-09T00:45:40.468Z,0.00
2024-05-09T00:46:40.426Z,0.00
2024-05-09T00:47:40.795Z,0.00
2024-05-09T00:48:40.656Z,0.00
2024-05-09T00:49:40.676Z,0.00
2024-05-09T00:50:41.093Z,0.00
2024-05-09T00:51:40.391Z,0.00
2024-05-09T00:52:40.371Z,0.00
2024-05-09T00:53:40.480Z,0.00
2024-05-09T00:54:40.354Z,0.00
2024-05-09T00:55:40.413Z,0.00
2024-05-09T00:56:40.409Z,0.00
2024-05-09T00:57:40.339Z,0.00
2024-05-09T00:58:40.626Z,0.00
2024-05-09T00:59:40.377Z,0.00
2024-05-09T01:00:41.459Z,0.00
2024-05-09T01:01:40.566Z,0.00
2024-05-09T01:02:40.452Z,0.00
2024-05-09T01:03:40.615Z,0.00
2024-05-09T01:04:40.375Z,0.00
2024-05-09T01:05:40.679Z,0.00
2024-05-09T01:06:40.360Z,0.00
2024-05-09T01:07:40.363Z,0.00
2024-05-09T01:08:40.311Z,0.00
2024-05-09T01:09:40.242Z,0.00
2024-05-09T01:10:42.774Z,0.00
2024-05-09T01:11:40.394Z,0.00
2024-05-09T01:12:40.347Z,0.00
2024-05-09T01:13:40.221Z,0.00
2024-05-09T01:14:40.200Z,0.00
2024-05-09T01:15:40.269Z,0.00
2024-05-09T01:16:40.178Z,0.00
2024-05-09T01:17:40.637Z,0.00
2024-05-09T01:18:40.377Z,0.00
2024-05-09T01:19:40.289Z,0.00
2024-05-09T01:20:43.221Z,0.00
2024-05-09T01:21:40.176Z,0.00
2024-05-09T01:22:40.193Z,0.00
2024-05-09T01:23:40.205Z,0.00
2024-05-09T01:24:40.346Z,0.00
2024-05-09T01:25:40.111Z,0.00
2024-05-09T01:26:40.127Z,0.00
2024-05-09T01:27:40.091Z,0.00
2024-05-09T01:28:41.716Z,0.00
2024-05-09T01:29:40.109Z,0.00
2024-05-09T01:30:40.087Z,0.00
2024-05-09T01:31:40.098Z,0.00
2024-05-09T01:32:40.256Z,0.00
2024-05-09T01:33:40.199Z,0.00
2024-05-09T01:34:40.038Z,0.00
2024-05-09T01:35:40.071Z,0.00
2024-05-09T01:36:40.128Z,0.00
2024-05-09T01:37:40.001Z,0.00
2024-05-09T01:38:40.023Z,0.00
2024-05-09T01:39:39.992Z,0.00
2024-05-09T01:40:40.561Z,0.00
2024-05-09T01:41:39.965Z,0.00
2024-05-09T01:42:39.966Z,0.00
2024-05-09T01:43:39.977Z,0.00
2024-05-09T01:44:39.941Z,0.00
2024-05-09T01:45:40.216Z,0.00
2024-05-09T01:46:39.942Z,0.00
2024-05-09T01:47:40.038Z,0.00
2024-05-09T01:48:39.978Z,0.00
2024-05-09T01:49:39.988Z,0.00
2024-05-09T01:50:42.339Z,0.00
2024-05-09T01:51:39.915Z,0.00
2024-05-09T01:52:39.907Z,0.00
2024-05-09T01:53:39.939Z,0.00
2024-05-09T01:54:39.856Z,0.00
2024-05-09T01:55:39.847Z,0.00
2024-05-09T01:56:39.860Z,0.00
2024-05-09T01:57:39.877Z,0.00
2024-05-09T01:58:39.834Z,0.00
2024-05-09T01:59:39.955Z,0.00
2024-05-09T02:00:42.233Z,0.00
2024-05-09T02:01:55.887Z,0.00
2024-05-09T02:02:40.880Z,0.00
2024-05-09T02:03:39.903Z,0.00
2024-05-09T02:04:39.913Z,0.00
2024-05-09T02:05:39.845Z,0.00
2024-05-09T02:06:39.894Z,0.00
2024-05-09T02:07:39.735Z,0.00
2024-05-09T02:08:39.940Z,0.00
2024-05-09T02:09:39.725Z,0.00
2024-05-09T02:10:39.731Z,0.00
2024-05-09T02:11:39.901Z,0.00
2024-05-09T02:12:39.700Z,0.00
2024-05-09T02:13:39.795Z,0.00
2024-05-09T02:14:39.739Z,0.00
2024-05-09T02:15:39.694Z,0.00
2024-05-09T02:16:39.658Z,0.00
2024-05-09T02:17:39.879Z,0.00
2024-05-09T02:18:39.959Z,0.00
2024-05-09T02:19:39.698Z,0.00
2024-05-09T02:20:39.892Z,0.00
2024-05-09T02:21:39.615Z,0.00
2024-05-09T02:22:39.614Z,0.00
2024-05-09T02:23:39.663Z,0.00
2024-05-09T02:24:39.660Z,0.00
2024-05-09T02:25:39.577Z,0.00
2024-05-09T02:26:39.704Z,0.00
2024-05-09T02:27:39.713Z,0.00
2024-05-09T02:28:39.551Z,0.00
2024-05-09T02:29:39.630Z,0.00
2024-05-09T02:30:41.657Z,0.00
2024-05-09T02:31:39.560Z,0.00
2024-05-09T02:32:39.728Z,0.00
2024-05-09T02:33:39.700Z,0.00
2024-05-09T02:34:39.535Z,0.00
2024-05-09T02:35:39.899Z,0.00
2024-05-09T02:36:39.509Z,0.00
2024-05-09T02:37:39.470Z,0.00
2024-05-09T02:38:39.498Z,0.00
2024-05-09T02:39:39.526Z,0.00
2024-05-09T02:40:40.333Z,0.00
2024-05-09T02:41:39.540Z,0.00
2024-05-09T02:42:39.506Z,0.00
2024-05-09T02:43:39.422Z,0.00
2024-05-09T02:44:39.420Z,0.00
2024-05-09T02:45:39.706Z,0.00
2024-05-09T02:46:39.445Z,0.00
2024-05-09T02:47:39.732Z,0.00
2024-05-09T02:48:39.523Z,0.00
2024-05-09T02:49:39.439Z,0.00
2024-05-09T02:50:40.243Z,0.00
2024-05-09T02:51:39.378Z,0.00
2024-05-09T02:52:39.368Z,0.00
2024-05-09T02:53:39.423Z,0.00
2024-05-09T02:54:39.338Z,0.00
2024-05-09T02:55:39.336Z,0.00
2024-05-09T02:56:39.394Z,0.00
2024-05-09T02:57:39.372Z,0.00
2024-05-09T02:58:39.309Z,0.00
2024-05-09T02:59:39.306Z,0.00
2024-05-09T03:00:41.719Z,1.00
2024-05-09T03:01:39.347Z,1.00
2024-05-09T03:02:39.522Z,1.00
2024-05-09T03:03:39.544Z,1.00
2024-05-09T03:04:39.373Z,0.00
2024-05-09T03:05:39.629Z,0.00
2024-05-09T03:06:39.238Z,0.00
2024-05-09T03:07:39.331Z,1.00
2024-05-09T03:08:39.311Z,1.00
2024-05-09T03:09:39.368Z,1.00
2024-05-09T03:10:39.785Z,1.00
2024-05-09T03:11:39.336Z,1.00
2024-05-09T03:12:39.474Z,2.00
2024-05-09T03:13:39.193Z,2.00
2024-05-09T03:14:39.211Z,3.00
2024-05-09T03:15:39.697Z,3.00
2024-05-09T03:16:39.156Z,3.00
2024-05-09T03:17:39.306Z,5.00
2024-05-09T03:18:39.309Z,6.00
2024-05-09T03:19:39.188Z,7.00
2024-05-09T03:20:39.497Z,5.00
2024-05-09T03:21:39.252Z,7.00
2024-05-09T03:22:39.113Z,8.00
2024-05-09T03:23:39.257Z,11.00
2024-05-09T03:24:39.084Z,12.00
2024-05-09T03:25:39.119Z,13.00
2024-05-09T03:26:39.135Z,14.00
2024-05-09T03:27:39.130Z,15.00
2024-05-09T03:28:39.053Z,19.00
2024-05-09T03:29:39.095Z,20.00
2024-05-09T03:30:42.324Z,22.00
2024-05-09T03:31:39.044Z,25.00
2024-05-09T03:32:39.145Z,28.00
2024-05-09T03:33:39.277Z,29.00
2024-05-09T03:34:39.059Z,31.00
2024-05-09T03:35:39.075Z,34.00
2024-05-09T03:36:39.028Z,38.00
2024-05-09T03:37:39.022Z,40.00
2024-05-09T03:38:39.065Z,45.00
2024-05-09T03:39:38.958Z,47.00
2024-05-09T03:40:39.006Z,50.00
2024-05-09T03:41:38.959Z,55.00
2024-05-09T03:42:38.996Z,58.00
2024-05-09T03:43:38.926Z,63.00
2024-05-09T03:44:38.964Z,68.00
2024-05-09T03:45:38.907Z,73.00
2024-05-09T03:46:38.928Z,77.00
2024-05-09T03:47:38.967Z,83.00
2024-05-09T03:48:39.044Z,89.00
2024-05-09T03:49:38.929Z,94.00
2024-05-09T03:50:39.071Z,98.00
2024-05-09T03:51:38.852Z,105.00
2024-05-09T03:52:39.004Z,111.00
2024-05-09T03:53:38.954Z,117.00
2024-05-09T03:54:38.839Z,121.00
2024-05-09T03:55:38.905Z,126.00
2024-05-09T03:56:38.894Z,135.00
2024-05-09T03:57:38.793Z,140.00
2024-05-09T03:58:38.802Z,146.00
2024-05-09T03:59:38.850Z,154.00
2024-05-09T04:00:40.129Z,161.00
2024-05-09T04:01:38.817Z,169.00
2024-05-09T04:02:38.887Z,174.00
2024-05-09T04:03:38.857Z,183.00
2024-05-09T04:04:38.774Z,185.00
2024-05-09T04:05:38.770Z,190.00
2024-05-09T04:06:38.738Z,199.00
2024-05-09T04:07:38.747Z,204.00
2024-05-09T04:08:38.878Z,212.00
2024-05-09T04:09:38.733Z,221.00
2024-05-09T04:10:38.764Z,231.00
2024-05-09T04:11:38.857Z,243.00
2024-05-09T04:12:38.727Z,254.00
2024-05-09T04:13:38.721Z,262.00
2024-05-09T04:14:38.736Z,276.00
2024-05-09T04:15:38.671Z,284.00
2024-05-09T04:16:38.638Z,293.00
2024-05-09T04:17:38.791Z,304.00
2024-05-09T04:18:38.723Z,313.00
2024-05-09T04:19:38.743Z,321.00
2024-05-09T04:20:40.668Z,332.00
2024-05-09T04:21:38.608Z,346.00
2024-05-09T04:22:38.594Z,362.00
2024-05-09T04:23:38.594Z,375.00
2024-05-09T04:24:38.583Z,385.00
2024-05-09T04:25:38.608Z,394.00
2024-05-09T04:26:38.633Z,404.00
2024-05-09T04:27:38.554Z,411.00
2024-05-09T04:28:38.540Z,422.00
2024-05-09T04:29:38.750Z,435.00
2024-05-09T04:30:40.961Z,449.00
2024-05-09T04:31:38.555Z,460.00
2024-05-09T04:32:38.795Z,473.00
2024-05-09T04:33:38.623Z,487.00
2024-05-09T04:34:38.512Z,496.00
2024-05-09T04:35:38.900Z,519.00
2024-05-09T04:36:40.302Z,530.00
2024-05-09T04:37:38.505Z,535.00
2024-05-09T04:38:38.562Z,545.00
2024-05-09T04:39:38.445Z,560.00
2024-05-09T04:40:38.681Z,574.00
2024-05-09T04:41:38.512Z,589.00
2024-05-09T04:42:38.455Z,602.00
2024-05-09T04:43:38.465Z,609.00
2024-05-09T04:44:38.439Z,608.00
2024-05-09T04:45:38.471Z,617.00
2024-05-09T04:46:39.171Z,639.00
2024-05-09T04:47:38.712Z,672.00
2024-05-09T04:48:38.473Z,716.00
2024-05-09T04:49:38.415Z,742.00
2024-05-09T04:50:39.671Z,768.00
2024-05-09T04:51:38.379Z,786.00
2024-05-09T04:52:38.329Z,801.00
2024-05-09T04:53:38.483Z,835.00
2024-05-09T04:54:38.318Z,866.00
2024-05-09T04:55:38.567Z,907.00
2024-05-09T04:56:38.328Z,941.00
2024-05-09T04:57:38.292Z,970.00
2024-05-09T04:58:38.269Z,976.00
2024-05-09T04:59:38.361Z,967.00
2024-05-09T05:00:39.293Z,968.00
2024-05-09T05:01:38.423Z,968.00
2024-05-09T05:02:38.314Z,972.00
2024-05-09T05:03:39.480Z,982.00
2024-05-09T05:04:38.281Z,1023.00
2024-05-09T05:05:38.829Z,1044.00
2024-05-09T05:06:38.234Z,1040.00
2024-05-09T05:07:38.212Z,1071.00
2024-05-09T05:08:38.318Z,1095.00
2024-05-09T05:09:38.193Z,1131.00
2024-05-09T05:10:38.265Z,1167.00
2024-05-09T05:11:38.436Z,1197.00
2024-05-09T05:12:38.154Z,1217.00
2024-05-09T05:13:41.359Z,1236.00
2024-05-09T05:14:38.220Z,1242.00
2024-05-09T05:15:38.142Z,1250.00
2024-05-09T05:16:38.144Z,1256.00
2024-05-09T05:17:38.628Z,1259.00
2024-05-09T05:18:38.253Z,1269.00
2024-05-09T05:19:38.374Z,1289.00
2024-05-09T05:20:38.188Z,1264.00
2024-05-09T05:21:38.084Z,1239.00
2024-05-09T05:22:38.083Z,1223.00
2024-05-09T05:23:38.580Z,1216.00
2024-05-09T05:24:38.072Z,1243.00
2024-05-09T05:25:38.071Z,1284.00
2024-05-09T05:26:38.094Z,1335.00
2024-05-09T05:27:38.046Z,1370.00
2024-05-09T05:28:38.060Z,1403.00
2024-05-09T05:29:38.189Z,1433.00
2024-05-09T05:30:38.076Z,1491.00
2024-05-09T05:31:38.024Z,1559.00
2024-05-09T05:32:38.209Z,1624.00
2024-05-09T05:33:38.259Z,1672.00
2024-05-09T05:34:37.980Z,1682.00
2024-05-09T05:35:38.043Z,1716.00
2024-05-09T05:36:37.997Z,1778.00
2024-05-09T05:37:37.959Z,1835.00
2024-05-09T05:38:38.030Z,1866.00
2024-05-09T05:39:37.959Z,1926.00
2024-05-09T05:40:39.074Z,1961.00
2024-05-09T05:41:37.963Z,1980.00
2024-05-09T05:42:37.923Z,1982.00
2024-05-09T05:43:37.936Z,2034.00
2024-05-09T05:44:37.987Z,2044.00
2024-05-09T05:45:38.214Z,2039.00
2024-05-09T05:46:37.895Z,2095.00
2024-05-09T05:47:38.110Z,2080.00
2024-05-09T05:48:38.006Z,2094.00
2024-05-09T05:49:38.115Z,2114.00
2024-05-09T05:50:38.742Z,2077.00
2024-05-09T05:51:37.828Z,2109.00
2024-05-09T05:52:37.854Z,2184.00
2024-05-09T05:53:37.900Z,2251.00
2024-05-09T05:54:37.813Z,2298.00
2024-05-09T05:55:37.904Z,2321.00
2024-05-09T05:56:37.892Z,2328.00
2024-05-09T05:57:37.793Z,2352.00
2024-05-09T05:58:37.789Z,2362.00
2024-05-09T05:59:37.947Z,2403.00
2024-05-09T06:00:40.106Z,2476.00
2024-05-09T06:01:37.923Z,2589.00
2024-05-09T06:02:37.878Z,2702.00
2024-05-09T06:03:37.879Z,2831.00
2024-05-09T06:04:37.805Z,3003.00
2024-05-09T06:05:37.777Z,3100.00
2024-05-09T06:06:37.752Z,3179.00
2024-05-09T06:07:37.722Z,3249.00
2024-05-09T06:08:37.689Z,3211.00
2024-05-09T06:09:37.735Z,3268.00
2024-05-09T06:10:40.173Z,3260.00
2024-05-09T06:11:37.776Z,3309.00
2024-05-09T06:12:37.677Z,3388.00
2024-05-09T06:13:37.664Z,3320.00
2024-05-09T06:14:38.082Z,3362.00
2024-05-09T06:15:37.967Z,3404.00
2024-05-09T06:16:37.648Z,3432.00
2024-05-09T06:17:37.763Z,3509.00
2024-05-09T06:18:37.835Z,3464.00
2024-05-09T06:19:37.700Z,3423.00
2024-05-09T06:20:38.476Z,3504.00
2024-05-09T06:21:38.073Z,3808.00
2024-05-09T06:22:38.424Z,4197.00
2024-05-09T06:23:38.338Z,4463.00
2024-05-09T06:24:37.599Z,4537.00
2024-05-09T06:25:38.060Z,4680.00
2024-05-09T06:26:37.598Z,4930.00
2024-05-09T06:27:37.822Z,5130.00
2024-05-09T06:28:37.529Z,5275.00
2024-05-09T06:29:37.674Z,5386.00
2024-05-09T06:30:40.094Z,5422.00
2024-05-09T06:31:37.535Z,5452.00
2024-05-09T06:32:37.676Z,5477.00
2024-05-09T06:33:37.679Z,6019.00
2024-05-09T06:34:37.511Z,6620.00
2024-05-09T06:35:37.603Z,6537.00
2024-05-09T06:36:37.547Z,6302.00
2024-05-09T06:37:37.479Z,5271.00
2024-05-09T06:38:37.620Z,5440.00
2024-05-09T06:39:37.616Z,6023.00
2024-05-09T06:40:39.672Z,6183.00
2024-05-09T06:41:37.525Z,6803.00
2024-05-09T06:42:37.475Z,7066.00
2024-05-09T06:43:37.864Z,7687.00
2024-05-09T06:44:37.894Z,7455.00
2024-05-09T06:45:37.647Z,7180.00
2024-05-09T06:46:37.378Z,6962.00
2024-05-09T06:47:37.531Z,7038.00
2024-05-09T06:48:37.642Z,7288.00
2024-05-09T06:49:37.412Z,7520.00
2024-05-09T06:50:39.074Z,7647.00
2024-05-09T06:51:38.371Z,6977.00
2024-05-09T06:52:37.381Z,7055.00
2024-05-09T06:53:37.931Z,7268.00
2024-05-09T06:54:37.320Z,7002.00
2024-05-09T06:55:37.640Z,7078.00
2024-05-09T06:56:37.387Z,7532.00
2024-05-09T06:57:39.171Z,7631.00
2024-05-09T06:58:37.342Z,7366.00
2024-05-09T06:59:37.348Z,6640.00
2024-05-09T07:00:40.177Z,6645.00
2024-05-09T07:01:37.284Z,6962.00
2024-05-09T07:02:37.616Z,6898.00
2024-05-09T07:03:37.373Z,6817.00
2024-05-09T07:04:37.467Z,6789.00
2024-05-09T07:05:38.793Z,6746.00
2024-05-09T07:06:37.922Z,6432.00
2024-05-09T07:07:37.598Z,6544.00
2024-05-09T07:08:37.240Z,6762.00
2024-05-09T07:09:37.207Z,6475.00
2024-05-09T07:10:37.971Z,6336.00
2024-05-09T07:11:37.755Z,6237.00
2024-05-09T07:12:38.001Z,6345.00
2024-05-09T07:13:37.539Z,6046.00
2024-05-09T07:14:38.376Z,5681.00
2024-05-09T07:15:37.183Z,5166.00
2024-05-09T07:16:37.295Z,5060.00
2024-05-09T07:17:37.688Z,4819.00
2024-05-09T07:18:37.646Z,4741.00
2024-05-09T07:19:46.825Z,4771.00
2024-05-09T07:20:37.545Z,4687.00
2024-05-09T07:21:37.090Z,4637.00
2024-05-09T07:22:37.833Z,4600.00
2024-05-09T07:23:37.234Z,4555.00
2024-05-09T07:24:37.102Z,4534.00
2024-05-09T07:25:37.518Z,4515.00
2024-05-09T07:26:37.282Z,4494.00
2024-05-09T07:27:37.166Z,4482.00
2024-05-09T07:28:37.418Z,4473.00
2024-05-09T07:29:38.909Z,4470.00
2024-05-09T07:30:37.069Z,4454.00
2024-05-09T07:31:37.725Z,4438.00
2024-05-09T07:32:37.649Z,4425.00
2024-05-09T07:33:37.130Z,4417.00
2024-05-09T07:34:37.638Z,4401.00
2024-05-09T07:35:37.160Z,4386.00
2024-05-09T07:36:36.995Z,4374.00
2024-05-09T07:37:37.003Z,4368.00
2024-05-09T07:38:37.155Z,4369.00
2024-05-09T07:39:37.457Z,4369.00
2024-05-09T07:40:37.495Z,4375.00
2024-05-09T07:41:37.121Z,4386.00
2024-05-09T07:42:37.478Z,4398.00
2024-05-09T07:43:36.986Z,4415.00
2024-05-09T07:44:37.363Z,4428.00
2024-05-09T07:45:48.464Z,4436.00
2024-05-09T07:47:47.280Z,4446.00
2024-05-09T07:48:58.024Z,4457.00
2024-05-09T07:50:34.657Z,4476.00
2024-05-09T07:53:14.247Z,4513.00
2024-05-09T07:53:33.626Z,4518.00
2024-05-09T07:53:43.370Z,4516.00
2024-05-09T07:54:38.138Z,4517.00
2024-05-09T07:55:37.351Z,4466.00
2024-05-09T07:56:37.474Z,4445.00
2024-05-09T07:57:37.245Z,4522.00
2024-05-09T07:58:36.823Z,4534.00
2024-05-09T07:59:38.055Z,4587.00
2024-05-09T08:00:37.520Z,4621.00
2024-05-09T08:01:36.964Z,4647.00
2024-05-09T08:02:36.783Z,4657.00
2024-05-09T08:03:36.881Z,4660.00
2024-05-09T08:04:36.846Z,4654.00
2024-05-09T08:05:37.188Z,4653.00
2024-05-09T08:06:36.811Z,4649.00
2024-05-09T08:07:36.770Z,4645.00
2024-05-09T08:08:37.256Z,4646.00
2024-05-09T08:09:38.389Z,4641.00
2024-05-09T08:10:36.857Z,4634.00
2024-05-09T08:11:36.715Z,4639.00
2024-05-09T08:12:36.698Z,4638.00
2024-05-09T08:13:36.940Z,4643.00
2024-05-09T08:14:36.663Z,4643.00
2024-05-09T08:15:36.745Z,4648.00
2024-05-09T08:16:36.750Z,4655.00
2024-05-09T08:17:36.729Z,4666.00
2024-05-09T08:18:36.806Z,4677.00
2024-05-09T08:19:36.729Z,4680.00
2024-05-09T08:20:36.653Z,4692.00
2024-05-09T08:21:36.690Z,4703.00
2024-05-09T08:22:36.600Z,4700.00
2024-05-09T08:23:36.605Z,4711.00
2024-05-09T08:24:36.646Z,4716.00
2024-05-09T08:25:37.258Z,4718.00
2024-05-09T08:26:36.597Z,4726.00
2024-05-09T08:27:36.579Z,4731.00
2024-05-09T08:28:36.547Z,4732.00
2024-05-09T08:29:36.565Z,4735.00
2024-05-09T08:30:38.257Z,4742.00
2024-05-09T08:31:36.637Z,4746.00
2024-05-09T08:32:36.568Z,4750.00
2024-05-09T08:33:36.927Z,4762.00
2024-05-09T08:34:36.578Z,4764.00
2024-05-09T08:35:36.503Z,4767.00
2024-05-09T08:36:36.498Z,4774.00
2024-05-09T08:37:38.936Z,4781.00
2024-05-09T08:38:36.472Z,4787.00
2024-05-09T08:39:36.630Z,4796.00
2024-05-09T08:40:37.866Z,4807.00
2024-05-09T08:41:36.460Z,4813.00
2024-05-09T08:42:36.466Z,4817.00
2024-05-09T08:43:39.031Z,4824.00
2024-05-09T08:44:36.412Z,4834.00
2024-05-09T08:45:36.622Z,4838.00
2024-05-09T08:46:36.427Z,4843.00
2024-05-09T08:47:36.505Z,4856.00
2024-05-09T08:48:36.555Z,4863.00
2024-05-09T08:49:37.707Z,4862.00
2024-05-09T08:50:39.163Z,4872.00
2024-05-09T08:51:36.381Z,4891.00
2024-05-09T08:52:36.351Z,4898.00
2024-05-09T08:53:36.365Z,4901.00
2024-05-09T08:54:36.358Z,4911.00
2024-05-09T08:55:39.437Z,4919.00
2024-05-09T08:56:38.290Z,4928.00
2024-05-09T08:57:36.353Z,4933.00
2024-05-09T08:58:36.424Z,4940.00
2024-05-09T08:59:36.298Z,4938.00
2024-05-09T09:00:37.629Z,4949.00
2024-05-09T09:01:38.038Z,4974.00
2024-05-09T09:02:36.404Z,4982.00
2024-05-09T09:03:36.711Z,4979.00
2024-05-09T09:04:36.328Z,4982.00
2024-05-09T09:05:37.045Z,4993.00
2024-05-09T09:06:36.239Z,5000.00
2024-05-09T09:07:36.325Z,5009.00
2024-05-09T09:08:36.207Z,5016.00
2024-05-09T09:09:36.255Z,5038.00
2024-05-09T09:10:36.376Z,5054.00
2024-05-09T09:11:36.284Z,5126.00
2024-05-09T09:12:36.219Z,5173.00
2024-05-09T09:13:36.170Z,5117.00
2024-05-09T09:14:36.150Z,5097.00
2024-05-09T09:15:36.391Z,5096.00
2024-05-09T09:16:36.135Z,5105.00
2024-05-09T09:17:36.279Z,5105.00
2024-05-09T09:18:36.345Z,5114.00
2024-05-09T09:19:36.268Z,5115.00
2024-05-09T09:20:37.131Z,5125.00
2024-05-09T09:21:36.227Z,5136.00
2024-05-09T09:22:36.096Z,5145.00
2024-05-09T09:23:36.138Z,5140.00
2024-05-09T09:24:36.082Z,5156.00
2024-05-09T09:25:36.188Z,5155.00
2024-05-09T09:26:36.101Z,5171.00
2024-05-09T09:27:36.191Z,5182.00
2024-05-09T09:28:36.035Z,5195.00
2024-05-09T09:29:36.050Z,5207.00
2024-05-09T09:30:37.961Z,5201.00
2024-05-09T09:31:36.085Z,5203.00
2024-05-09T09:32:36.148Z,5205.00
2024-05-09T09:33:36.579Z,5176.00
2024-05-09T09:34:36.058Z,5177.00
2024-05-09T09:35:35.998Z,5195.00
2024-05-09T09:36:35.995Z,5213.00
2024-05-09T09:37:35.992Z,5236.00
2024-05-09T09:38:35.977Z,5243.00
2024-05-09T09:39:35.980Z,5244.00
2024-05-09T09:40:38.924Z,5244.00
2024-05-09T09:41:36.940Z,5255.00
2024-05-09T09:42:36.346Z,5280.00
2024-05-09T09:43:35.942Z,5285.00
2024-05-09T09:44:39.527Z,5293.00
2024-05-09T09:45:37.003Z,5282.00
2024-05-09T09:46:35.948Z,5275.00
2024-05-09T09:47:35.933Z,5294.00
2024-05-09T09:48:36.537Z,5308.00
2024-05-09T09:49:35.929Z,5291.00
2024-05-09T09:50:35.882Z,5283.00
2024-05-09T09:51:35.901Z,5280.00
2024-05-09T09:52:35.855Z,5287.00
2024-05-09T09:53:35.991Z,5279.00
2024-05-09T09:54:35.884Z,5283.00
2024-05-09T09:55:36.794Z,5294.00
2024-05-09T09:56:35.823Z,5294.00
2024-05-09T09:57:35.930Z,5288.00
2024-05-09T09:58:35.907Z,5288.00
2024-05-09T09:59:35.850Z,5279.00
2024-05-09T10:00:35.982Z,5284.00
2024-05-09T10:01:36.045Z,5273.00
2024-05-09T10:02:36.046Z,5265.00
2024-05-09T10:03:36.034Z,5276.00
2024-05-09T10:04:35.830Z,5260.00
2024-05-09T10:05:35.911Z,5240.00
2024-05-09T10:06:35.759Z,5208.00
2024-05-09T10:07:35.754Z,5201.00
2024-05-09T10:08:35.711Z,5224.00
2024-05-09T10:09:35.734Z,5228.00
2024-05-09T10:10:36.044Z,5237.00
2024-05-09T10:11:42.077Z,5239.00
2024-05-09T10:12:36.810Z,5245.00
2024-05-09T10:13:35.802Z,5265.00
2024-05-09T10:14:35.700Z,5293.00
2024-05-09T10:15:35.775Z,5287.00
2024-05-09T10:16:35.688Z,5289.00
2024-05-09T10:17:35.782Z,5298.00
2024-05-09T10:18:35.782Z,5301.00
2024-05-09T10:19:35.699Z,5304.00
2024-05-09T10:20:35.697Z,5304.00
2024-05-09T10:21:35.793Z,5323.00
2024-05-09T10:22:35.642Z,5355.00
2024-05-09T10:23:35.771Z,5411.00
2024-05-09T10:24:35.611Z,5437.00
2024-05-09T10:25:35.609Z,5464.00
2024-05-09T10:26:35.627Z,5489.00
2024-05-09T10:27:35.668Z,5485.00
2024-05-09T10:28:35.999Z,5476.00
2024-05-09T10:29:35.618Z,5467.00
2024-05-09T10:30:36.584Z,5488.00
2024-05-09T10:31:35.629Z,5495.00
2024-05-09T10:32:35.594Z,5506.00
2024-05-09T10:33:35.682Z,5521.00
2024-05-09T10:34:35.580Z,5542.00
2024-05-09T10:35:35.653Z,5548.00
2024-05-09T10:36:35.511Z,5565.00
2024-05-09T10:37:35.621Z,5607.00
2024-05-09T10:38:35.495Z,5623.00
2024-05-09T10:39:35.562Z,5651.00
2024-05-09T10:40:35.550Z,5672.00
2024-05-09T10:41:35.470Z,5662.00
2024-05-09T10:42:45.354Z,5678.00
2024-05-09T10:43:35.438Z,5716.00
2024-05-09T10:44:35.427Z,5736.00
2024-05-09T10:45:35.493Z,5745.00
2024-05-09T10:46:35.408Z,5756.00
2024-05-09T10:47:35.468Z,5751.00
2024-05-09T10:48:35.476Z,5761.00
2024-05-09T10:49:35.461Z,5773.00
2024-05-09T10:50:35.440Z,5774.00
2024-05-09T10:51:35.436Z,5809.00
2024-05-09T10:52:35.372Z,5828.00
2024-05-09T10:53:35.375Z,5822.00
2024-05-09T10:54:35.428Z,5837.00
2024-05-09T10:55:35.401Z,5850.00
2024-05-09T10:56:35.329Z,5841.00
2024-05-09T10:57:35.340Z,5818.00
2024-05-09T10:58:35.307Z,5818.00
2024-05-09T10:59:35.327Z,5816.00
2024-05-09T11:00:36.439Z,5811.00
2024-05-09T11:01:35.430Z,5834.00
2024-05-09T11:02:35.415Z,5842.00
2024-05-09T11:03:35.854Z,5929.00
2024-05-09T11:04:35.312Z,5976.00
2024-05-09T11:05:35.425Z,5985.00
2024-05-09T11:06:35.355Z,6030.00
2024-05-09T11:07:35.234Z,6072.00
2024-05-09T11:08:35.252Z,6146.00
2024-05-09T11:09:35.250Z,6296.00
2024-05-09T11:10:35.306Z,6524.00
2024-05-09T11:11:36.970Z,6597.00
2024-05-09T11:12:35.271Z,6622.00
2024-05-09T11:13:35.240Z,6640.00
2024-05-09T11:14:35.200Z,6702.00
2024-05-09T11:15:35.209Z,6715.00
2024-05-09T11:16:35.155Z,6674.00
2024-05-09T11:17:35.345Z,6569.00
2024-05-09T11:18:38.208Z,6537.00
2024-05-09T11:19:35.333Z,6616.00
2024-05-09T11:20:35.654Z,6611.00
2024-05-09T11:21:35.153Z,5157.00
2024-05-09T11:22:35.176Z,6277.00
2024-05-09T11:23:35.138Z,6528.00
2024-05-09T11:24:35.116Z,6536.00
2024-05-09T11:25:35.108Z,6586.00
2024-05-09T11:26:35.085Z,6622.00
2024-05-09T11:27:35.134Z,6629.00
2024-05-09T11:28:35.204Z,6650.00
2024-05-09T11:29:35.129Z,6625.00
2024-05-09T11:30:35.097Z,6690.00
2024-05-09T11:31:35.112Z,5427.00
2024-05-09T11:32:35.222Z,6946.00
2024-05-09T11:33:35.084Z,7075.00
2024-05-09T11:34:35.153Z,7163.00
2024-05-09T11:35:35.022Z,7283.00
2024-05-09T11:36:35.076Z,7350.00
2024-05-09T11:37:37.167Z,7310.00
2024-05-09T11:38:35.025Z,5783.00
2024-05-09T11:39:35.070Z,5314.00
2024-05-09T11:40:35.113Z,5315.00
2024-05-09T11:41:34.982Z,5350.00
2024-05-09T11:42:35.010Z,6890.00
2024-05-09T11:43:35.073Z,5569.00
2024-05-09T11:44:34.979Z,5463.00
2024-05-09T11:45:35.061Z,5482.00
2024-05-09T11:46:34.966Z,6023.00
2024-05-09T11:47:35.050Z,5602.00
2024-05-09T11:48:35.113Z,7477.00
2024-05-09T11:49:35.118Z,5629.00
2024-05-09T11:50:36.108Z,5351.00
2024-05-09T11:51:34.960Z,5271.00
2024-05-09T11:52:34.902Z,5321.00
2024-05-09T11:53:34.874Z,7128.00
2024-05-09T11:54:34.918Z,7015.00
2024-05-09T11:55:34.896Z,6999.00
2024-05-09T11:56:34.890Z,7005.00
2024-05-09T11:57:34.875Z,7071.00
2024-05-09T11:58:35.037Z,7187.00
2024-05-09T11:59:34.887Z,7167.00
2024-05-09T12:00:37.426Z,7196.00
2024-05-09T12:01:34.974Z,7211.00
2024-05-09T12:02:34.908Z,7276.00
2024-05-09T12:03:35.110Z,7326.00
2024-05-09T12:04:34.925Z,7339.00
2024-05-09T12:05:35.058Z,7298.00
2024-05-09T12:06:34.853Z,7241.00
2024-05-09T12:07:34.953Z,7202.00
2024-05-09T12:08:34.772Z,7206.00
2024-05-09T12:09:34.818Z,7180.00
2024-05-09T12:10:36.317Z,7176.00
2024-05-09T12:11:34.768Z,7229.00
2024-05-09T12:12:37.117Z,7319.00
2024-05-09T12:13:34.998Z,7449.00
2024-05-09T12:14:34.732Z,7510.00
2024-05-09T12:15:34.783Z,7535.00
2024-05-09T12:16:34.767Z,7525.00
2024-05-09T12:17:34.780Z,7500.00
2024-05-09T12:18:34.892Z,7583.00
2024-05-09T12:19:34.770Z,7584.00
2024-05-09T12:20:37.899Z,7552.00
2024-05-09T12:21:35.721Z,7453.00
2024-05-09T12:22:34.666Z,7415.00
2024-05-09T12:23:34.669Z,6924.00
2024-05-09T12:24:34.727Z,7289.00
2024-05-09T12:25:34.649Z,7226.00
2024-05-09T12:26:34.644Z,5534.00
2024-05-09T12:27:34.706Z,5105.00
2024-05-09T12:28:35.461Z,6289.00
2024-05-09T12:29:37.536Z,6447.00
2024-05-09T12:30:38.470Z,7059.00